Time;durP1;ratioP1;P1;durP2;ratioP2;P2;SDS_P1;SDS_P2;PMS_P1;PMS_P2;Temp;Humidity;BMP_temperature;BMP_pressure;BME280_temperature;BME280_humidity;BME280_pressure;Samples;Min_cycle;Max_cycle;Signal;HPM_P1;HPM_P2
2022/08/04 00:02:14;;;;;;;23.52;10.02;;;22.40;96.40;;;;;;5051482;28;20411;-79
2022/08/04 00:04:58;;;;;;;12.40;8.48;;;22.30;97.30;;;;;;5050149;28;20032;-79
2022/08/04 00:07:52;;;;;;;12.15;8.80;;;22.30;97.70;;;;;;5052345;28;20511;-79
2022/08/04 00:10:20;;;;;;;17.23;8.13;;;22.20;99.40;;;;;;5052745;28;20472;-79
2022/08/04 00:12:49;;;;;;;11.00;8.50;;;22.20;99.90;;;;;;5052923;28;20113;-79
2022/08/04 00:15:16;;;;;;;8.80;7.90;;;22.20;99.90;;;;;;5052323;28;20020;-79
2022/08/04 00:18:06;;;;;;;9.15;8.25;;;22.10;99.90;;;;;;5052043;28;20025;-79
2022/08/04 00:20:33;;;;;;;10.10;8.32;;;22.10;99.90;;;;;;5051490;28;20032;-79
2022/08/04 00:23:00;;;;;;;12.35;8.57;;;22.10;99.90;;;;;;5049246;28;20037;-79
2022/08/04 00:25:26;;;;;;;10.60;7.88;;;22.10;99.90;;;;;;5052315;28;20033;-79
2022/08/04 00:27:53;;;;;;;12.07;8.57;;;22.10;99.90;;;;;;5052194;28;20021;-79
2022/08/04 00:30:19;;;;;;;9.57;8.13;;;22.10;99.90;;;;;;5049032;28;20051;-79
2022/08/04 00:32:46;;;;;;;13.52;8.85;;;22.10;99.90;;;;;;5051830;28;20048;-79
2022/08/04 00:35:16;;;;;;;14.45;8.55;;;22.10;99.90;;;;;;5051019;28;20452;-79
2022/08/04 00:37:45;;;;;;;12.70;11.50;;;22.10;99.90;;;;;;5050887;28;20060;-79
2022/08/04 00:40:27;;;;;;;17.35;15.55;;;22.10;99.90;;;;;;5050378;28;20064;-79
2022/08/04 00:43:05;;;;;;;;;;;22.10;99.90;;;;;;5051723;28;20036;-79
2022/08/04 00:45:51;;;;;;;12.50;9.52;;;22.10;99.90;;;;;;5052054;28;19915;-79
2022/08/04 00:48:32;;;;;;;12.13;10.13;;;22.10;99.90;;;;;;5052008;28;20025;-79
2022/08/04 00:51:10;;;;;;;12.48;9.35;;;22.00;99.90;;;;;;5051184;28;20037;-79
2022/08/04 00:54:01;;;;;;;15.50;9.23;;;22.00;99.90;;;;;;5052016;28;20021;-79
2022/08/04 00:56:42;;;;;;;15.80;9.30;;;22.10;99.90;;;;;;5050480;28;20111;-79
2022/08/04 00:59:45;;;;;;;14.50;9.87;;;22.10;99.90;;;;;;5050596;28;20091;-79
2022/08/04 01:02:56;;;;;;;13.90;9.52;;;22.10;99.90;;;;;;5049732;28;20379;-79
2022/08/04 01:05:40;;;;;;;15.30;9.27;;;22.10;99.90;;;;;;5048968;28;20520;-79
2022/08/04 01:08:54;;;;;;;12.50;9.35;;;22.10;99.90;;;;;;5051465;28;20017;-79
2022/08/04 01:12:00;;;;;;;14.98;9.98;;;22.10;99.90;;;;;;5018453;28;20085;-78
2022/08/04 01:14:31;;;;;;;10.95;9.70;;;22.10;99.90;;;;;;4951031;28;20051;-78
2022/08/04 01:17:18;;;;;;;14.88;10.10;;;22.10;99.90;;;;;;4951617;29;20031;-79
2022/08/04 01:20:00;;;;;;;11.30;9.95;;;22.10;99.90;;;;;;4935155;29;20067;-79
2022/08/04 01:22:31;;;;;;;13.48;10.48;;;22.10;99.90;;;;;;4949123;29;20043;-79
2022/08/04 01:25:21;;;;;;;11.60;10.48;;;22.10;99.90;;;;;;4935022;29;20039;-80
2022/08/04 01:27:59;;;;;;;14.23;11.30;;;22.10;99.90;;;;;;4949555;29;20077;-79
2022/08/04 01:30:26;;;;;;;19.17;11.70;;;22.00;99.90;;;;;;4951290;29;20228;-79
2022/08/04 01:33:00;;;;;;;15.07;12.00;;;22.00;99.90;;;;;;4951294;29;20031;-79
2022/08/04 01:35:52;;;;;;;13.65;11.02;;;22.00;99.90;;;;;;4951337;29;20058;-78
2022/08/04 01:38:23;;;;;;;13.90;11.57;;;22.00;99.90;;;;;;4950760;29;20035;-78
2022/08/04 01:40:55;;;;;;;12.02;10.93;;;22.00;99.90;;;;;;4951254;29;20577;-78
2022/08/04 01:43:22;;;;;;;18.30;11.38;;;21.90;99.90;;;;;;4950899;29;20035;-79
2022/08/04 01:45:56;;;;;;;13.43;8.55;;;21.90;99.90;;;;;;4933562;29;20031;-80
2022/08/04 01:48:24;;;;;;;16.52;9.45;;;21.80;99.90;;;;;;4978040;28;20157;-79
2022/08/04 01:50:52;;;;;;;13.10;10.13;;;21.70;99.90;;;;;;5020573;28;20392;-80
2022/08/04 01:53:19;;;;;;;14.77;10.60;;;21.70;99.90;;;;;;5051205;28;20028;-79
2022/08/04 01:55:52;;;;;;;13.43;8.32;;;21.60;99.90;;;;;;5049985;28;20112;-80
2022/08/04 01:58:18;;;;;;;17.23;8.73;;;21.50;99.90;;;;;;5051534;28;20043;-80
2022/08/04 02:00:55;;;;;;;10.57;9.43;;;21.50;99.90;;;;;;5051079;28;20480;-80
2022/08/04 02:03:21;;;;;;;18.38;9.38;;;21.50;99.90;;;;;;5050629;28;20021;-80
2022/08/04 02:05:49;;;;;;;10.60;9.00;;;21.50;99.90;;;;;;5051519;28;20104;-80
2022/08/04 02:08:25;;;;;;;11.98;7.85;;;21.50;99.90;;;;;;5051419;28;20037;-80
2022/08/04 02:11:07;;;;;;;13.30;8.95;;;21.50;99.90;;;;;;5051031;28;20036;-80
2022/08/04 02:13:48;;;;;;;9.85;8.32;;;21.40;99.90;;;;;;5049535;28;20029;-80
2022/08/04 02:16:35;;;;;;;9.77;7.17;;;21.40;99.90;;;;;;5053937;28;20395;-80
2022/08/04 02:19:23;;;;;;;16.15;7.63;;;21.40;99.90;;;;;;5053576;28;20117;-80
2022/08/04 02:21:56;;;;;;;10.35;8.65;;;21.40;99.90;;;;;;5053392;28;20032;-80
2022/08/04 02:24:26;;;;;;;16.08;7.70;;;21.30;99.90;;;;;;5052539;28;20171;-80
2022/08/04 02:26:55;;;;;;;12.60;6.88;;;21.30;99.90;;;;;;5061716;28;20040;-80
2022/08/04 02:29:44;;;;;;;11.10;8.43;;;21.30;99.90;;;;;;5054983;28;20044;-80
2022/08/04 02:32:24;;;;;;;9.25;7.22;;;21.30;99.90;;;;;;5052981;28;20020;-80
2022/08/04 02:35:15;;;;;;;9.75;6.63;;;21.30;99.90;;;;;;5053012;28;20025;-80
2022/08/04 02:37:48;;;;;;;7.90;6.90;;;21.20;99.90;;;;;;5052365;28;20025;-80
2022/08/04 02:40:20;;;;;;;14.25;8.07;;;21.20;99.90;;;;;;5054393;28;20685;-80
2022/08/04 02:42:45;;;;;;;;;;;21.10;99.90;;;;;;5055326;28;20021;-80
2022/08/04 02:45:12;;;;;;;18.83;8.43;;;21.10;99.90;;;;;;5054355;28;19936;-80
2022/08/04 02:47:38;;;;;;;11.05;7.90;;;21.00;99.90;;;;;;5054084;28;20095;-80
2022/08/04 02:50:07;;;;;;;15.45;9.70;;;21.00;99.90;;;;;;5054637;28;20041;-80
2022/08/04 02:52:34;;;;;;;10.60;8.02;;;20.80;99.90;;;;;;5052852;28;20025;-80
2022/08/04 02:55:01;;;;;;;11.32;8.75;;;20.80;99.90;;;;;;5051906;28;20071;-80
2022/08/04 02:57:30;;;;;;;8.63;7.22;;;20.80;99.90;;;;;;5054431;28;20086;-80
2022/08/04 03:00:13;;;;;;;10.32;8.43;;;20.70;99.90;;;;;;5052661;28;20037;-80
2022/08/04 03:02:48;;;;;;;14.50;6.88;;;20.70;99.90;;;;;;5052407;28;20025;-80
2022/08/04 03:05:48;;;;;;;12.45;7.70;;;20.70;99.90;;;;;;5054082;28;20029;-80
2022/08/04 03:08:20;;;;;;;14.48;7.15;;;20.60;99.90;;;;;;5053506;28;20037;-81
2022/08/04 03:11:27;;;;;;;12.60;7.53;;;20.60;99.90;;;;;;5054043;28;20025;-80
2022/08/04 03:14:12;;;;;;;12.95;7.88;;;20.50;99.90;;;;;;5046412;28;20025;-81
2022/08/04 03:17:20;;;;;;;16.88;8.45;;;20.60;99.90;;;;;;5054000;28;20527;-80
2022/08/04 03:20:18;;;;;;;13.32;8.20;;;20.50;99.90;;;;;;5048286;28;20556;-81
2022/08/04 03:23:06;;;;;;;14.07;9.35;;;20.50;99.90;;;;;;5041011;28;20041;-80
2022/08/04 03:25:35;;;;;;;11.73;9.00;;;20.50;99.90;;;;;;5052617;28;20029;-80
2022/08/04 03:28:14;;;;;;;20.15;8.15;;;20.40;99.90;;;;;;5052016;28;20041;-80
2022/08/04 03:31:01;;;;;;;30.25;9.27;;;20.40;99.90;;;;;;5052678;28;20427;-80
2022/08/04 03:34:07;;;;;;;20.02;8.48;;;20.40;99.90;;;;;;5051555;28;20031;-80
2022/08/04 03:36:36;;;;;;;11.13;8.40;;;20.30;99.90;;;;;;5038228;28;20037;-80
2022/08/04 03:39:14;;;;;;;14.65;8.52;;;20.30;99.90;;;;;;5050868;28;20033;-80
2022/08/04 03:42:14;;;;;;;12.88;8.20;;;20.30;99.90;;;;;;5051083;28;20037;-80
2022/08/04 03:45:06;;;;;;;9.75;7.13;;;20.20;99.90;;;;;;5035632;28;20123;-80
2022/08/04 03:47:44;;;;;;;21.33;8.25;;;20.20;99.90;;;;;;5052040;28;20068;-80
2022/08/04 03:50:25;;;;;;;11.80;9.18;;;20.20;99.90;;;;;;5051996;28;20033;-79
2022/08/04 03:53:08;;;;;;;15.70;7.67;;;20.30;99.90;;;;;;5053271;28;20352;-79
2022/08/04 03:56:00;;;;;;;10.55;7.68;;;20.30;99.90;;;;;;5054545;28;20033;-79
2022/08/04 03:58:46;;;;;;;16.42;7.80;;;20.30;99.90;;;;;;5042631;28;20041;-78
2022/08/04 04:01:37;;;;;;;10.15;6.55;;;20.40;99.90;;;;;;5049487;28;20118;-79
2022/08/04 04:04:24;;;;;;;10.68;7.18;;;20.40;99.90;;;;;;5053325;28;20029;-79
2022/08/04 04:07:18;;;;;;;16.02;8.90;;;20.50;99.90;;;;;;5054585;28;20029;-79
2022/08/04 04:10:10;;;;;;;13.52;8.50;;;20.60;99.90;;;;;;5048792;28;20025;-79
2022/08/04 04:12:36;;;;;;;13.48;7.38;;;20.60;99.90;;;;;;5051634;28;20051;-79
2022/08/04 04:15:34;;;;;;;16.60;7.25;;;20.60;99.90;;;;;;5054009;28;20459;-80
2022/08/04 04:18:05;;;;;;;9.23;6.13;;;20.60;99.90;;;;;;5053448;28;20029;-79
2022/08/04 04:20:54;;;;;;;12.32;7.40;;;20.70;99.90;;;;;;5053484;28;20037;-79
2022/08/04 04:23:50;;;;;;;14.80;7.00;;;20.80;99.90;;;;;;5050425;28;20035;-79
2022/08/04 04:26:53;;;;;;;17.63;7.60;;;20.90;99.90;;;;;;5048913;28;20076;-79
2022/08/04 04:29:37;;;;;;;17.98;8.35;;;21.00;99.90;;;;;;5052822;28;20049;-79
2022/08/04 04:32:33;;;;;;;18.33;7.85;;;21.00;99.90;;;;;;5054006;28;20029;-79
2022/08/04 04:35:23;;;;;;;16.92;8.20;;;21.20;99.90;;;;;;5053897;28;20044;-79
2022/08/04 04:38:01;;;;;;;15.32;12.10;;;21.30;99.90;;;;;;5053019;28;20025;-79
2022/08/04 04:40:33;;;;;;;11.30;7.78;;;21.40;99.90;;;;;;5054319;28;20475;-79
2022/08/04 04:43:01;;;;;;;;;;;21.40;99.90;;;;;;5054571;28;20032;-79
2022/08/04 04:45:46;;;;;;;12.38;6.97;;;21.50;99.90;;;;;;5054089;28;19911;-79
2022/08/04 04:48:31;;;;;;;16.30;7.32;;;21.60;99.90;;;;;;5054035;28;20108;-79
2022/08/04 04:51:06;;;;;;;11.32;6.95;;;21.70;99.90;;;;;;5053934;28;20047;-79
2022/08/04 04:53:43;;;;;;;23.98;7.15;;;21.80;99.90;;;;;;5052972;28;20380;-79
2022/08/04 04:56:52;;;;;;;20.05;8.20;;;21.90;99.90;;;;;;5052993;28;20124;-79
2022/08/04 04:59:21;;;;;;;21.50;10.38;;;22.00;99.90;;;;;;5031601;28;20129;-79
2022/08/04 05:02:07;;;;;;;17.88;8.82;;;22.00;99.90;;;;;;5031713;28;20503;-79
2022/08/04 05:05:02;;;;;;;18.05;8.75;;;22.10;99.90;;;;;;5031698;28;20037;-79
2022/08/04 05:07:36;;;;;;;10.40;7.53;;;22.20;99.90;;;;;;5031738;28;20025;-79
2022/08/04 05:10:16;;;;;;;13.70;7.82;;;22.30;99.90;;;;;;5032003;28;20045;-79
2022/08/04 05:12:52;;;;;;;11.60;7.13;;;22.40;99.90;;;;;;5031619;28;20025;-79
2022/08/04 05:15:19;;;;;;;12.30;7.60;;;22.40;99.90;;;;;;5031571;28;20503;-79
2022/08/04 05:17:54;;;;;;;14.15;5.40;;;22.50;99.90;;;;;;5031684;28;20029;-78
2022/08/04 05:20:27;;;;;;;15.02;6.03;;;22.60;99.90;;;;;;5014775;28;20040;-79
2022/08/04 05:23:15;;;;;;;19.55;6.78;;;22.70;99.90;;;;;;5031714;28;20144;-80
2022/08/04 05:25:50;;;;;;;13.43;6.60;;;22.80;99.90;;;;;;5031404;28;20033;-79
2022/08/04 05:28:20;;;;;;;19.40;7.25;;;22.90;99.90;;;;;;5031351;28;20056;-80
2022/08/04 05:31:01;;;;;;;24.73;7.05;;;23.00;99.10;;;;;;5031356;28;20033;-79
2022/08/04 05:33:55;;;;;;;9.55;6.50;;;23.10;99.80;;;;;;5031333;28;20025;-78
2022/08/04 05:36:29;;;;;;;9.73;6.50;;;23.20;96.90;;;;;;5049109;28;20525;-79
2022/08/04 05:39:00;;;;;;;7.95;6.95;;;23.40;95.70;;;;;;5053713;28;20025;-79
2022/08/04 05:41:32;;;;;;;16.77;6.07;;;23.50;92.50;;;;;;5053687;28;20475;-79
2022/08/04 05:43:59;;;;;;;8.68;5.60;;;23.60;91.90;;;;;;5053657;28;20025;-79
2022/08/04 05:46:28;;;;;;;13.43;5.38;;;23.60;91.00;;;;;;5052173;28;20074;-79
2022/08/04 05:48:54;;;;;;;7.95;5.25;;;23.70;90.50;;;;;;5055555;28;20048;-79
2022/08/04 05:51:21;;;;;;;11.02;6.82;;;23.80;88.60;;;;;;5056269;28;20486;-80
2022/08/04 05:53:47;;;;;;;7.68;5.75;;;;;;;;;;5056158;28;20104;-78
2022/08/04 05:56:15;;;;;;;14.43;6.43;;;;;;;;;;5057357;28;20017;-78
2022/08/04 05:58:41;;;;;;;8.02;5.95;;;;;;;;;;5057671;28;20031;-78
2022/08/04 06:01:08;;;;;;;7.20;5.63;;;;;;;;;;5055962;28;20037;-79
2022/08/04 06:03:36;;;;;;;14.18;6.35;;;;;;;;;;5057355;28;20070;-78
2022/08/04 06:06:02;;;;;;;12.43;6.32;;;;;;;;;;5056360;28;20021;-78
2022/08/04 06:08:29;;;;;;;13.00;7.18;;;;;;;;;;5056920;28;20383;-77
2022/08/04 06:10:57;;;;;;;13.55;6.90;;;;;;;;;;5057183;28;20403;-78
2022/08/04 06:13:28;;;;;;;11.07;7.25;;;;;;;;;;5056962;28;20428;-78
2022/08/04 06:15:56;;;;;;;13.02;7.30;;;;;;;;;;5055800;28;20472;-78
2022/08/04 06:18:23;;;;;;;9.35;7.93;;;;;;;;;;5057336;28;20078;-78
2022/08/04 06:20:52;;;;;;;11.60;7.43;;;;;;;;;;5055748;28;20383;-79
2022/08/04 06:23:19;;;;;;;9.93;8.35;;;;;;;;;;5055574;28;20111;-79
2022/08/04 06:25:49;;;;;;;13.23;7.07;;;;;;;;;;5056669;28;20025;-79
2022/08/04 06:28:16;;;;;;;15.73;7.45;;;;;;;;;;5056282;28;20072;-78
2022/08/04 06:30:46;;;;;;;19.20;6.95;;;;;;;;;;5057223;28;20096;-78
2022/08/04 06:33:32;;;;;;;10.55;7.00;;;;;;;;;;5056694;28;20033;-78
2022/08/04 06:35:58;;;;;;;8.15;6.88;;;;;;;;;;5055376;28;20051;-79
2022/08/04 06:38:26;;;;;;;12.18;7.60;;;;;;;;;;5056798;28;20120;-79
2022/08/04 06:40:53;;;;;;;12.98;7.78;;;;;;;;;;5055411;28;20487;-80
2022/08/04 06:43:19;;;;;;;11.10;8.77;;;;;;;;;;5056521;28;20070;-78
2022/08/04 06:45:46;;;;;;;10.05;9.07;;;;;;;;;;5056286;28;20262;-79
2022/08/04 06:48:14;;;;;;;14.80;9.05;;;;;;;;;;5055216;28;20444;-79
2022/08/04 06:50:44;;;;;;;15.15;8.10;;;;;;;;;;5056359;28;20103;-79
2022/08/04 06:53:10;;;;;;;10.20;8.90;;;;;;;;;;5056880;28;20451;-79
2022/08/04 06:55:36;;;;;;;17.20;8.90;;;;;;;;;;5056484;28;20128;-79
2022/08/04 06:58:03;;;;;;;11.32;8.60;;;;;;;;;;5055005;28;20066;-79
2022/08/04 07:00:29;;;;;;;10.45;9.02;;;;;;;;;;5055425;28;20036;-78
2022/08/04 07:02:56;;;;;;;13.25;8.85;;;;;;;;;;5055141;28;20437;-79
2022/08/04 07:05:22;;;;;;;15.30;8.80;;;;;;;;;;5056040;28;20574;-79
2022/08/04 07:07:49;;;;;;;12.20;9.60;;;;;;;;;;5056154;28;20108;-79
2022/08/04 07:10:16;;;;;;;11.43;9.70;;;;;;;;;;5055739;28;20032;-79
2022/08/04 07:12:43;;;;;;;12.60;10.77;;;;;;;;;;5055901;28;20171;-78
2022/08/04 07:15:10;;;;;;;11.82;9.38;;;;;;;;;;5054784;28;20119;-79
2022/08/04 07:17:37;;;;;;;10.55;8.68;;;;;;;;;;5055833;28;20024;-79
2022/08/04 07:20:04;;;;;;;10.25;8.15;;;;;;;;;;5055981;28;20028;-79
2022/08/04 07:22:31;;;;;;;14.77;8.98;;;;;;;;;;5055572;28;20422;-79
2022/08/04 07:24:58;;;;;;;10.93;8.10;;;;;;;;;;5055727;28;20365;-79
2022/08/04 07:27:24;;;;;;;13.93;7.72;;;;;;;;;;5055771;28;20044;-79
2022/08/04 07:29:51;;;;;;;9.40;8.50;;;;;;;;;;5056145;28;20495;-79
2022/08/04 07:32:20;;;;;;;11.40;8.30;;;;;;;;;;5054364;28;20021;-79
2022/08/04 07:34:46;;;;;;;11.13;7.50;;;;;;;;;;5055884;28;20108;-79
2022/08/04 07:37:13;;;;;;;11.43;6.72;;;;;;;;;;5055521;28;20075;-79
2022/08/04 07:39:39;;;;;;;17.67;8.82;;;;;;;;;;5055148;28;20476;-78
2022/08/04 07:42:05;;;;;;;7.82;6.35;;;;;;;;;;5055466;28;20075;-79
2022/08/04 07:44:32;;;;;;;12.73;7.72;;;;;;;;;;5055888;28;20029;-79
2022/08/04 07:46:59;;;;;;;12.82;10.85;;;;;;;;;;5055646;28;20048;-78
2022/08/04 07:49:25;;;;;;;8.95;7.60;;;;;;;;;;5055109;28;20052;-78
2022/08/04 07:51:53;;;;;;;16.77;10.25;;;;;;;;;;5055561;28;20071;-77
2022/08/04 07:54:19;;;;;;;13.75;10.13;;;;;;;;;;5054899;28;20112;-78
2022/08/04 07:56:48;;;;;;;12.63;10.27;;;;;;;;;;5053991;28;20055;-79
2022/08/04 07:59:15;;;;;;;13.48;10.77;;;;;;;;;;5055091;28;20021;-78
2022/08/04 08:01:41;;;;;;;12.05;10.95;;;;;;;;;;5054731;28;20021;-79
2022/08/04 08:04:08;;;;;;;14.00;7.40;;;;;;;;;;5055104;28;20107;-78
2022/08/04 08:06:35;;;;;;;12.70;7.82;;;;;;;;;;5054964;28;20151;-78
2022/08/04 08:09:07;;;;;;;10.48;8.18;;;;;;;;;;5055091;28;20025;-78
2022/08/04 08:11:33;;;;;;;15.75;8.43;;;;;;;;;;5054143;28;20029;-78
2022/08/04 08:13:59;;;;;;;18.75;9.45;;;;;;;;;;5055054;28;20460;-78
2022/08/04 08:16:26;;;;;;;11.23;7.43;;;;;;;;;;5054569;28;20036;-78
2022/08/04 08:18:52;;;;;;;13.52;11.80;;;;;;;;;;5054876;28;20099;-78
2022/08/04 08:21:22;;;;;;;10.75;8.07;;;;;;;;;;5054687;28;20112;-79
2022/08/04 08:23:49;;;;;;;12.07;8.18;;;;;;;;;;5054628;28;20071;-78
2022/08/04 08:26:15;;;;;;;17.45;8.30;;;;;;;;;;5054444;28;20013;-78
2022/08/04 08:28:41;;;;;;;15.82;7.72;;;;;;;;;;5054136;28;20045;-78
2022/08/04 08:31:07;;;;;;;12.30;8.05;;;;;;;;;;5054531;28;20054;-78
2022/08/04 08:33:34;;;;;;;8.95;8.10;;;;;;;;;;5054640;28;20100;-79
2022/08/04 08:36:05;;;;;;;14.32;11.00;;;;;;;;;;5054362;28;20123;-78
2022/08/04 08:38:46;;;;;;;14.20;11.15;;;;;;;;;;5054154;28;20024;-79
2022/08/04 08:41:31;;;;;;;14.98;10.98;;;;;;;;;;5053926;28;20033;-78
2022/08/04 08:44:03;;;;;;;19.13;11.85;;;;;;;;;;5054789;28;20032;-78
2022/08/04 08:46:29;;;;;;;11.43;10.40;;;;;;;;;;5054543;28;20025;-78
2022/08/04 08:48:55;;;;;;;14.60;11.57;;;;;;;;;;5054174;28;20032;-78
2022/08/04 08:51:45;;;;;;;15.00;11.10;;;;;;;;;;5054602;28;20029;-79
2022/08/04 08:54:30;;;;;;;13.98;11.35;;;;;;;;;;5054477;28;20103;-78
2022/08/04 08:57:09;;;;;;;16.52;8.68;;;;;;;;;;5054013;28;20021;-79
2022/08/04 08:59:49;;;;;;;10.25;8.98;;;;;;;;;;5053878;28;20021;-78
2022/08/04 09:02:34;;;;;;;14.77;9.18;;;;;;;;;;5053417;28;20447;-79
2022/08/04 09:05:18;;;;;;;12.07;8.35;;;;;;;;;;5053874;28;20502;-78
2022/08/04 09:07:57;;;;;;;10.40;8.77;;;;;;;;;;5053933;28;20023;-78
2022/08/04 09:10:27;;;;;;;9.95;8.93;;;;;;;;;;5054346;28;20025;-78
2022/08/04 09:13:08;;;;;;;13.10;10.07;;;;;;;;;;5053895;28;20483;-78
2022/08/04 09:15:52;;;;;;;11.60;10.65;;;;;;;;;;5052732;28;20021;-78
2022/08/04 09:18:21;;;;;;;14.50;10.35;;;;;;;;;;5053693;28;20055;-78
2022/08/04 09:20:48;;;;;;;11.85;10.90;;;;;;;;;;5053804;28;20025;-78
2022/08/04 09:23:19;;;;;;;15.70;7.25;;;;;;;;;;5052652;28;20371;-78
2022/08/04 09:26:06;;;;;;;7.63;6.82;;;;;;;;;;5052078;28;20108;-78
2022/08/04 09:28:38;;;;;;;8.18;7.32;;;;;;;;;;5053254;28;20175;-78
2022/08/04 09:31:07;;;;;;;11.20;10.07;;;;;;;;;;5053467;28;20029;-78
2022/08/04 09:33:36;;;;;;;11.57;10.68;;;;;;;;;;5053573;28;20036;-78
2022/08/04 09:36:26;;;;;;;12.00;10.65;;;;;;;;;;5053857;28;20103;-78
2022/08/04 09:38:55;;;;;;;11.40;10.32;;;;;;;;;;5047943;28;20033;-78
2022/08/04 09:41:21;;;;;;;15.80;7.10;;;;;;;;;;5053642;28;20123;-78
2022/08/04 09:43:47;;;;;;;8.18;6.47;;;;;;;;;;5052294;28;20116;-78
2022/08/04 09:46:13;;;;;;;8.38;7.10;;;;;;;;;;5053610;28;20021;-78
2022/08/04 09:48:44;;;;;;;7.47;6.20;;;;;;;;;;5053590;28;20025;-78
2022/08/04 09:51:14;;;;;;;11.07;6.50;;;;;;;;;;5053384;28;20055;-78
2022/08/04 09:54:16;;;;;;;11.77;10.37;;;;;;;;;;5053572;28;20035;-78
2022/08/04 09:56:48;;;;;;;11.77;9.98;;;;;;;;;;5035668;28;20025;-79
2022/08/04 09:59:21;;;;;;;10.73;7.75;;;;;;;;;;5053420;28;20104;-78
2022/08/04 10:01:50;;;;;;;13.65;7.78;;;;;;;;;;5053448;28;20033;-78
2022/08/04 10:04:18;;;;;;;10.25;6.18;;;;;;;;;;5053889;28;20025;-78
2022/08/04 10:07:03;;;;;;;9.25;8.07;;;;;;;;;;5053200;28;20371;-78
2022/08/04 10:09:48;;;;;;;7.57;5.13;;;;;;;;;;5052996;28;20025;-78
2022/08/04 10:12:23;;;;;;;6.75;5.78;;;;;;;;;;5053340;28;20112;-77
2022/08/04 10:14:53;;;;;;;5.55;5.10;;;;;;;;;;5053006;28;20024;-79
2022/08/04 10:17:53;;;;;;;5.80;5.40;;;;;;;;;;5053203;28;20021;-78
2022/08/04 10:20:37;;;;;;;8.10;6.78;;;;;;;;;;5043403;28;20025;-78
2022/08/04 10:23:16;;;;;;;7.18;6.30;;;;;;;;;;5052914;28;20472;-78
2022/08/04 10:25:52;;;;;;;10.48;7.20;;;;;;;;;;5053286;28;20535;-78
2022/08/04 10:28:20;;;;;;;5.82;5.20;;;;;;;;;;5052563;28;20048;-78
2022/08/04 10:30:54;;;;;;;5.65;5.13;;;;;;;;;;5052487;28;20404;-78
2022/08/04 10:33:37;;;;;;;6.22;5.82;;;;;;;;;;5052772;28;20171;-78
2022/08/04 10:36:04;;;;;;;8.10;5.88;;;;;;;;;;5055068;28;20021;-78
2022/08/04 10:38:34;;;;;;;7.45;6.65;;;;;;;;;;5054819;28;20013;-78
2022/08/04 10:41:11;;;;;;;10.60;9.65;;;;;;;;;;5055637;28;20086;-78
2022/08/04 10:43:58;;;;;;;10.02;6.22;;;;;;;;;;5056060;28;20048;-77
2022/08/04 10:46:29;;;;;;;7.55;5.97;;;;;;;;;;5055344;28;20100;-77
2022/08/04 10:48:58;;;;;;;6.55;5.72;;;;;;;;;;5055015;28;20021;-78
2022/08/04 10:51:28;;;;;;;20.33;11.60;;;;;;;;;;5054567;28;20499;-78
2022/08/04 10:54:00;;;;;;;39.50;30.17;;;;;;;;;;5055402;28;20100;-78
2022/08/04 10:56:32;;;;;;;111.18;40.63;;;;;;;;;;5055837;28;20549;-78
2022/08/04 10:59:08;;;;;;;7.30;6.80;;;;;;;;;;5055483;28;20033;-79
2022/08/04 11:01:45;;;;;;;6.72;6.22;;;;;;;;;;5055834;28;20036;-78
2022/08/04 11:04:29;;;;;;;8.13;7.30;;;;;;;;;;5054277;28;20041;-79
2022/08/04 11:06:56;;;;;;;7.57;6.90;;;;;;;;;;5050418;28;20029;-78
2022/08/04 11:09:22;;;;;;;7.40;6.70;;;;;;;;;;5054519;28;20021;-78
2022/08/04 11:11:57;;;;;;;8.25;7.75;;;;;;;;;;5055484;28;20410;-79
2022/08/04 11:14:46;;;;;;;8.27;6.72;;;;;;;;;;5055197;28;20024;-78
2022/08/04 11:17:16;;;;;;;52.20;26.80;;;;;;;;;;5054437;28;20820;-79
2022/08/04 11:19:54;;;;;;;36.33;19.25;;;;;;;;;;5053973;28;20120;-78
2022/08/04 11:22:21;;;;;;;33.90;21.30;;;;;;;;;;5053987;28;20033;-79
2022/08/04 11:24:52;;;;;;;34.45;22.52;;;;;;;;;;5054483;28;20391;-78
2022/08/04 11:27:38;;;;;;;40.53;21.55;;;;;;;;;;5048715;28;20025;-78
2022/08/04 11:30:06;;;;;;;23.48;16.33;;;;;;;;;;5042591;28;20571;-78
2022/08/04 11:32:32;;;;;;;32.92;21.65;;;;;;;;;;5054535;28;20488;-79
2022/08/04 11:35:01;;;;;;;22.20;15.60;;;;;;;;;;5053861;28;20028;-79
2022/08/04 11:37:41;;;;;;;13.40;11.82;;;;;;;;;;5053911;28;20379;-78
2022/08/04 11:40:11;;;;;;;21.67;14.40;;;;;;;;;;5054453;28;20475;-79
2022/08/04 11:42:42;;;;;;;13.63;9.27;;;;;;;;;;5054821;28;20032;-79
2022/08/04 11:45:15;;;;;;;22.38;14.88;;;;;;;;;;5054490;28;20021;-78
2022/08/04 11:47:46;;;;;;;20.08;16.35;;;;;;;;;;5054512;28;20017;-78
2022/08/04 11:50:21;;;;;;;8.15;5.95;;;;;;;;;;5053292;28;20021;-78
2022/08/04 11:52:47;;;;;;;13.60;12.23;;;;;;;;;;5053196;28;20452;-78
2022/08/04 11:55:15;;;;;;;28.23;17.67;;;;;;;;;;5053565;28;20076;-80
2022/08/04 11:57:42;;;;;;;34.22;20.75;;;;;;;;;;5054441;28;20021;-80
2022/08/04 12:00:11;;;;;;;6.28;5.88;;;;;;;;;;5054790;28;20025;-79
2022/08/04 12:02:49;;;;;;;10.30;6.50;;;;;;;;;;5053322;28;20036;-80
2022/08/04 12:05:16;;;;;;;9.25;7.05;;;;;;;;;;5048269;28;20075;-80
2022/08/04 12:07:49;;;;;;;7.40;6.65;;;;;;;;;;5054021;28;20020;-80
2022/08/04 12:10:18;;;;;;;7.65;7.18;;;;;;;;;;5054816;28;20021;-80
2022/08/04 12:12:58;;;;;;;7.15;6.57;;;;;;;;;;5054454;28;20074;-79
2022/08/04 12:15:27;;;;;;;6.32;5.70;;;;;;;;;;5053671;28;20021;-79
2022/08/04 12:17:57;;;;;;;8.82;5.90;;;;;;;;;;5054958;28;20025;-79
2022/08/04 12:20:24;;;;;;;7.03;6.43;;;;;;;;;;5054405;28;20029;-79
2022/08/04 12:22:51;;;;;;;6.00;5.47;;;;;;;;;;5054201;28;20017;-79
2022/08/04 12:25:21;;;;;;;5.93;5.43;;;;;;;;;;5054200;28;20035;-80
2022/08/04 12:27:49;;;;;;;8.30;6.63;;;;;;;;;;5053958;28;20024;-80
2022/08/04 12:30:17;;;;;;;6.35;5.95;;;;;;;;;;5053520;28;20455;-81
2022/08/04 12:33:13;;;;;;;7.15;5.80;;;;;;;;;;5050536;28;20127;-79
2022/08/04 12:35:52;;;;;;;6.43;5.93;;;;;;;;;;5047963;28;20079;-80
2022/08/04 12:38:20;;;;;;;6.38;5.82;;;;;;;;;;5053242;28;20017;-77
2022/08/04 12:40:48;;;;;;;6.97;6.38;;;;;;;;;;5053287;28;20029;-78
2022/08/04 12:43:21;;;;;;;10.60;5.93;;;;;;;;;;5052710;28;20013;-78
2022/08/04 12:45:52;;;;;;;6.43;5.93;;;;;;;;;;5051768;28;20021;-78
2022/08/04 12:48:19;;;;;;;6.65;6.25;;;;;;;;;;5052585;28;20028;-77
2022/08/04 12:50:50;;;;;;;7.35;6.30;;;;;;;;;;5052560;28;20059;-78
2022/08/04 12:53:16;;;;;;;7.10;6.47;;;;;;;;;;5052880;28;20459;-78
2022/08/04 12:55:47;;;;;;;7.47;6.40;;;;;;;;;;5052834;28;20013;-78
2022/08/04 12:58:23;;;;;;;7.28;6.75;;;;;;;;;;5050820;28;20021;-78
2022/08/04 13:00:53;;;;;;;6.95;6.30;;;;;;;;;;5049209;28;20106;-78
2022/08/04 13:03:20;;;;;;;6.63;6.13;;;;;;;;;;5053046;28;20021;-79
2022/08/04 13:05:48;;;;;;;6.10;5.70;;;;;;;;;;5048691;28;20025;-79
2022/08/04 13:08:19;;;;;;;6.40;5.90;;;;;;;;;;5052573;28;20055;-78
2022/08/04 13:10:46;;;;;;;;;;;;;;;;;;5050679;28;20411;-77
2022/08/04 13:13:16;;;;;;;6.43;6.03;;;;;;;;;;5053448;28;19909;-77
2022/08/04 13:15:42;;;;;;;6.55;6.05;;;;;;;;;;5052889;28;20091;-79
2022/08/04 13:18:09;;;;;;;7.10;6.50;;;;;;;;;;5052726;28;20476;-77
2022/08/04 13:20:36;;;;;;;7.18;6.47;;;;;;;;;;5052833;28;20041;-77
2022/08/04 13:23:07;;;;;;;7.05;6.22;;;;;;;;;;5052595;28;20379;-76
2022/08/04 13:25:33;;;;;;;7.83;7.03;;;;;;;;;;5046531;28;20036;-77
2022/08/04 13:28:01;;;;;;;7.03;6.53;;;;;;;;;;5053668;28;20246;-77
2022/08/04 13:30:28;;;;;;;7.05;6.20;;;;;;;;;;5052695;28;20025;-77
2022/08/04 13:32:57;;;;;;;6.65;6.15;;;;;;;;;;5053115;28;20095;-77
2022/08/04 13:35:24;;;;;;;7.65;7.05;;;;;;;;;;5053609;28;20099;-77
2022/08/04 13:37:51;;;;;;;7.20;6.55;;;;;;;;;;5053261;28;20414;-77
2022/08/04 13:40:21;;;;;;;6.95;6.35;;;;;;;;;;5053114;28;20100;-78
2022/08/04 13:42:47;;;;;;;6.85;6.35;;;;;;;;;;5053073;28;20094;-77
2022/08/04 13:45:14;;;;;;;8.18;6.07;;;;;;;;;;5053130;28;20453;-77
2022/08/04 13:47:40;;;;;;;7.10;6.30;;;;;;;;;;5053382;28;20074;-77
2022/08/04 13:50:13;;;;;;;7.43;6.72;;;;;;;;;;5052207;28;20025;-77
2022/08/04 13:52:40;;;;;;;11.73;6.90;;;;;;;;;;5052036;28;20065;-77
2022/08/04 13:55:07;;;;;;;9.18;6.57;;;;;;;;;;5053367;28;20067;-76
2022/08/04 13:57:36;;;;;;;7.85;7.07;;;;;;;;;;5053414;28;20021;-77
2022/08/04 14:00:07;;;;;;;9.05;6.40;;;;;;;;;;5053537;28;20017;-77
2022/08/04 14:02:43;;;;;;;6.63;6.10;;;;;;;;;;5052088;28;20061;-77
2022/08/04 14:05:15;;;;;;;9.02;6.40;;;;;;;;;;5053034;28;20025;-77
2022/08/04 14:07:43;;;;;;;10.30;7.05;;;;;;;;;;5053519;28;20051;-78
2022/08/04 14:10:11;;;;;;;9.98;6.15;;;;;;;;;;5056617;28;20108;-78
2022/08/04 14:12:43;;;;;;;8.02;6.20;;;;;;;;;;5055973;28;20433;-78
2022/08/04 14:15:28;;;;;;;6.57;6.07;;;;;;;;;;5055788;28;20021;-78
2022/08/04 14:18:15;;;;;;;9.15;6.78;;;;;;;;;;5057210;28;20021;-78
2022/08/04 14:20:57;;;;;;;10.50;7.13;;;;;;;;;;5057135;28;20021;-79
2022/08/04 14:23:24;;;;;;;9.65;6.75;;;;;;;;;;5057150;28;20033;-79
2022/08/04 14:25:51;;;;;;;12.50;8.45;;;;;;;;;;5056950;28;20047;-78